Time;durP1;ratioP1;P1;durP2;ratioP2;P2;SDS_P1;SDS_P2;PMS_P1;PMS_P2;Temp;Humidity;BMP_temperature;BMP_pressure;BME280_temperature;BME280_humidity;BME280_pressure;Samples;Min_cycle;Max_cycle;Signal;HPM_P1;HPM_P2
2022/07/19 00:03:02;;;;;;;10.02;9.73;;;20.10;99.90;;;;;;5065814;28;20355;-88
2022/07/19 00:05:39;;;;;;;10.10;9.80;;;20.00;99.90;;;;;;5067006;28;21062;-88
2022/07/19 00:08:31;;;;;;;10.45;10.15;;;20.00;99.90;;;;;;5067414;28;20317;-88
2022/07/19 00:16:33;;;;;;;10.20;9.90;;;19.90;99.90;;;;;;5079884;28;20218;-89
2022/07/19 00:19:03;;;;;;;10.38;10.07;;;19.80;99.90;;;;;;5053982;28;20235;-88
2022/07/19 00:21:38;;;;;;;10.18;9.88;;;19.80;99.90;;;;;;5070837;28;20226;-89
2022/07/19 00:24:17;;;;;;;10.10;9.80;;;19.80;99.90;;;;;;5069944;28;20264;-89
2022/07/19 00:26:47;;;;;;;9.95;9.65;;;19.80;99.90;;;;;;5069823;28;20226;-88
2022/07/19 00:29:15;;;;;;;10.10;9.80;;;19.70;99.90;;;;;;5067826;28;20246;-88
2022/07/19 00:31:45;;;;;;;10.02;9.73;;;19.60;99.90;;;;;;5076647;28;20239;-88
2022/07/19 00:34:13;;;;;;;10.10;9.80;;;19.60;99.90;;;;;;5072781;28;20210;-88
2022/07/19 00:36:44;;;;;;;10.10;9.80;;;19.60;99.90;;;;;;5067934;28;20222;-90
2022/07/19 00:39:21;;;;;;;10.00;9.70;;;19.50;99.90;;;;;;5067450;28;20238;-88
2022/07/19 00:41:51;;;;;;;10.07;9.77;;;19.50;99.90;;;;;;5069915;28;20239;-88
2022/07/19 00:44:23;;;;;;;10.00;9.70;;;19.40;99.90;;;;;;5068665;28;20257;-88
2022/07/19 00:46:52;;;;;;;9.90;9.60;;;19.40;99.90;;;;;;5068556;28;20262;-88
2022/07/19 00:49:20;;;;;;;10.18;9.88;;;19.30;99.90;;;;;;5068839;28;20227;-88
2022/07/19 00:51:57;;;;;;;10.05;9.75;;;19.30;99.90;;;;;;5065494;28;20239;-87
2022/07/19 00:54:36;;;;;;;10.00;9.70;;;19.20;99.90;;;;;;5070084;28;20230;-87
2022/07/19 00:57:08;;;;;;;10.02;9.73;;;19.20;99.90;;;;;;5067370;28;20249;-88
2022/07/19 00:59:45;;;;;;;9.90;9.60;;;19.10;99.90;;;;;;5067759;28;20234;-87
2022/07/19 01:02:14;;;;;;;10.15;9.85;;;19.10;99.90;;;;;;5077071;28;20234;-87
2022/07/19 01:04:51;;;;;;;10.10;9.80;;;19.10;99.90;;;;;;5072338;28;20254;-88
2022/07/19 01:07:20;;;;;;;9.98;9.68;;;19.00;99.90;;;;;;5069528;28;20292;-88
2022/07/19 01:09:59;;;;;;;9.95;9.65;;;19.00;99.90;;;;;;5067651;28;20291;-87
2022/07/19 01:12:29;;;;;;;10.10;9.80;;;18.90;99.90;;;;;;5065217;28;20440;-87
2022/07/19 01:14:59;;;;;;;10.15;9.85;;;18.90;99.90;;;;;;5063831;28;20242;-87
2022/07/19 01:17:32;;;;;;;10.10;9.80;;;18.80;99.90;;;;;;5062493;28;20238;-88
2022/07/19 01:20:00;;;;;;;10.20;9.90;;;18.80;99.90;;;;;;5064980;28;20226;-87
2022/07/19 01:22:29;;;;;;;10.25;9.95;;;18.70;99.90;;;;;;5086409;22;20235;-80
2022/07/19 01:24:57;;;;;;;10.23;9.93;;;18.70;99.90;;;;;;5064040;28;20231;-80
2022/07/19 01:27:26;;;;;;;10.10;9.80;;;18.70;99.90;;;;;;5065638;28;20281;-80
2022/07/19 01:29:56;;;;;;;10.20;9.90;;;18.70;99.90;;;;;;5065043;28;20321;-81
2022/07/19 01:32:25;;;;;;;10.02;9.73;;;18.60;99.90;;;;;;5064552;28;20241;-81
2022/07/19 01:34:54;;;;;;;9.73;9.43;;;18.60;99.90;;;;;;5065766;28;20267;-81
2022/07/19 01:37:25;;;;;;;9.65;9.35;;;18.60;99.90;;;;;;5066834;28;20267;-81
2022/07/19 01:39:58;;;;;;;9.80;9.50;;;18.50;99.90;;;;;;5066695;28;20289;-80
2022/07/19 01:42:25;;;;;;;9.63;9.32;;;18.50;99.90;;;;;;5066248;28;20293;-81
2022/07/19 01:44:53;;;;;;;9.60;9.30;;;18.40;99.90;;;;;;5064765;28;20250;-81
2022/07/19 01:47:22;;;;;;;9.77;9.48;;;18.40;99.90;;;;;;5065820;28;20326;-81
2022/07/19 01:49:51;;;;;;;9.80;9.50;;;18.40;99.90;;;;;;5065979;28;20346;-80
2022/07/19 01:52:20;;;;;;;9.60;9.30;;;18.30;99.90;;;;;;5064645;28;20265;-79
2022/07/19 01:54:50;;;;;;;9.60;9.30;;;18.30;99.90;;;;;;5065490;28;20234;-81
2022/07/19 01:57:30;;;;;;;9.88;9.57;;;18.30;99.90;;;;;;5064331;28;20219;-81
2022/07/19 01:59:58;;;;;;;9.60;9.30;;;18.20;99.90;;;;;;5064647;28;20235;-80
2022/07/19 02:02:27;;;;;;;9.80;9.50;;;18.20;99.90;;;;;;5064402;28;20272;-81
2022/07/19 02:04:57;;;;;;;9.60;9.30;;;18.20;99.90;;;;;;5064060;28;20309;-81
2022/07/19 02:07:25;;;;;;;9.77;9.48;;;18.10;99.90;;;;;;5065213;28;20219;-80
2022/07/19 02:09:57;;;;;;;9.57;9.27;;;18.10;99.90;;;;;;5064847;28;20315;-81
2022/07/19 02:12:33;;;;;;;9.90;9.60;;;18.10;99.90;;;;;;5064847;28;20298;-80
2022/07/19 02:15:03;;;;;;;9.77;9.48;;;18.00;99.90;;;;;;5064943;28;20317;-80
2022/07/19 02:17:32;;;;;;;9.77;9.48;;;18.00;99.90;;;;;;5067483;28;20285;-81
2022/07/19 02:20:02;;;;;;;9.57;9.27;;;17.90;99.90;;;;;;5069536;28;20345;-81
2022/07/19 02:22:31;;;;;;;9.60;9.30;;;17.80;99.90;;;;;;5066616;28;20302;-80
2022/07/19 02:25:01;;;;;;;9.90;9.60;;;17.70;99.90;;;;;;5065162;28;20238;-81
2022/07/19 02:27:39;;;;;;;9.80;9.50;;;17.70;99.90;;;;;;5065766;28;20660;-81
2022/07/19 02:30:09;;;;;;;9.60;9.30;;;17.60;99.90;;;;;;5066078;28;20257;-81
2022/07/19 02:32:38;;;;;;;10.00;9.70;;;17.60;99.90;;;;;;5065135;28;20239;-81
2022/07/19 02:35:08;;;;;;;9.60;9.30;;;17.60;99.90;;;;;;5065023;28;20238;-81
2022/07/19 02:37:37;;;;;;;9.75;9.45;;;17.60;99.90;;;;;;5063781;28;20320;-80
2022/07/19 02:40:06;;;;;;;9.43;9.13;;;17.50;99.90;;;;;;5064889;28;21050;-80
2022/07/19 02:42:45;;;;;;;9.80;9.50;;;17.50;99.90;;;;;;5064024;28;20258;-81
2022/07/19 02:45:15;;;;;;;9.90;9.60;;;17.40;99.90;;;;;;5064263;28;20278;-80
2022/07/19 02:47:44;;;;;;;10.00;9.70;;;17.40;99.90;;;;;;5064727;28;20270;-80
2022/07/19 02:50:13;;;;;;;9.43;9.13;;;17.30;99.90;;;;;;5063228;28;20257;-80
2022/07/19 02:52:43;;;;;;;9.50;9.20;;;17.30;99.90;;;;;;5064155;28;20243;-80
2022/07/19 02:55:12;;;;;;;9.60;9.30;;;17.30;99.90;;;;;;5065052;28;20231;-80
2022/07/19 02:57:51;;;;;;;9.52;9.23;;;17.20;99.90;;;;;;5076131;28;20286;-79
2022/07/19 03:00:20;;;;;;;9.70;9.40;;;17.20;99.90;;;;;;5077657;28;20234;-81
2022/07/19 03:02:48;;;;;;;10.60;10.30;;;17.20;99.90;;;;;;5073611;28;20233;-81
2022/07/19 03:05:18;;;;;;;10.23;9.93;;;17.20;99.90;;;;;;5067590;28;20234;-81
2022/07/19 03:07:48;;;;;;;10.13;9.82;;;17.20;99.90;;;;;;5066636;28;20304;-81
2022/07/19 03:10:18;;;;;;;10.13;9.82;;;17.20;99.90;;;;;;5065896;28;20246;-81
2022/07/19 03:12:55;;;;;;;10.30;10.00;;;17.20;99.90;;;;;;5064676;28;20333;-81
2022/07/19 03:15:28;;;;;;;10.40;10.10;;;17.20;99.90;;;;;;5063311;28;20222;-81
2022/07/19 03:17:56;;;;;;;10.68;10.38;;;17.20;99.90;;;;;;5064051;28;20310;-80
2022/07/19 03:20:26;;;;;;;10.48;10.18;;;17.10;99.90;;;;;;5063586;28;20289;-81
2022/07/19 03:22:55;;;;;;;10.70;10.40;;;17.10;99.90;;;;;;5063446;28;20317;-80
2022/07/19 03:25:25;;;;;;;10.30;10.00;;;17.10;99.90;;;;;;5063085;28;20329;-81
2022/07/19 03:27:57;;;;;;;10.30;10.00;;;17.10;99.90;;;;;;5063384;28;20297;-80
2022/07/19 03:30:25;;;;;;;10.10;9.80;;;17.10;99.90;;;;;;5064308;28;20245;-80
2022/07/19 03:32:53;;;;;;;9.93;9.63;;;17.10;99.90;;;;;;5063872;28;20230;-81
2022/07/19 03:35:22;;;;;;;9.90;9.60;;;17.10;99.90;;;;;;5063522;28;20278;-80
2022/07/19 03:37:52;;;;;;;10.00;9.70;;;17.10;99.90;;;;;;5063703;28;20227;-80
2022/07/19 03:40:21;;;;;;;9.90;9.60;;;17.10;99.90;;;;;;5063401;28;20259;-80
2022/07/19 03:42:50;;;;;;;9.75;9.45;;;17.10;99.90;;;;;;5063655;28;20226;-79
2022/07/19 03:45:29;;;;;;;10.00;9.70;;;17.10;99.90;;;;;;5063869;28;20246;-80
2022/07/19 03:47:58;;;;;;;10.13;9.82;;;17.10;99.90;;;;;;5063730;28;20231;-80
2022/07/19 03:50:27;;;;;;;10.00;9.70;;;17.10;99.90;;;;;;5064560;28;20234;-80
2022/07/19 03:52:57;;;;;;;9.90;9.60;;;17.10;99.90;;;;;;5063724;28;20230;-80
2022/07/19 03:55:26;;;;;;;10.10;9.80;;;17.20;99.90;;;;;;5070985;28;20227;-80
2022/07/19 03:57:56;;;;;;;10.13;9.82;;;17.20;99.90;;;;;;5073758;28;20230;-79
2022/07/19 04:00:29;;;;;;;10.25;9.95;;;17.20;99.90;;;;;;5066399;28;20238;-80
2022/07/19 04:02:56;;;;;;;10.10;9.80;;;17.20;99.90;;;;;;5064326;28;20290;-81
2022/07/19 04:05:24;;;;;;;10.15;9.85;;;17.20;99.90;;;;;;5065045;28;20243;-82
2022/07/19 04:07:54;;;;;;;10.10;9.80;;;17.20;99.90;;;;;;5064572;28;20259;-80
2022/07/19 04:10:23;;;;;;;10.27;9.98;;;17.20;99.90;;;;;;5064841;28;20246;-81
2022/07/19 04:12:52;;;;;;;10.40;10.10;;;17.20;99.90;;;;;;5064194;28;20227;-80
2022/07/19 04:15:22;;;;;;;10.40;10.10;;;17.20;99.90;;;;;;5064760;28;20294;-81
2022/07/19 04:17:54;;;;;;;10.10;9.80;;;17.20;99.90;;;;;;5063339;28;20262;-80
2022/07/19 04:20:21;;;;;;;10.10;9.80;;;17.20;99.90;;;;;;5063690;28;20267;-80
2022/07/19 04:22:50;;;;;;;10.20;9.90;;;17.20;99.90;;;;;;5062586;28;20267;-80
2022/07/19 04:25:19;;;;;;;10.30;10.00;;;17.20;99.90;;;;;;5064320;28;20278;-79
2022/07/19 04:27:50;;;;;;;10.30;10.00;;;17.30;99.90;;;;;;5066778;28;20238;-79
2022/07/19 04:30:18;;;;;;;10.10;9.80;;;17.30;99.90;;;;;;5065678;28;20265;-80
2022/07/19 04:32:48;;;;;;;10.20;9.90;;;17.30;99.90;;;;;;5066664;28;21054;-80
2022/07/19 04:35:26;;;;;;;10.20;9.90;;;17.40;99.90;;;;;;5063652;28;20325;-80
2022/07/19 04:37:55;;;;;;;9.98;9.68;;;17.40;99.90;;;;;;5064520;28;20258;-80
2022/07/19 04:40:25;;;;;;;10.05;9.75;;;17.50;99.90;;;;;;5064037;28;20235;-80
2022/07/19 04:42:55;;;;;;;10.18;9.88;;;17.50;99.90;;;;;;5063392;28;20298;-79
2022/07/19 04:45:24;;;;;;;10.60;10.30;;;17.60;99.90;;;;;;5063634;28;20273;-80
2022/07/19 04:47:53;;;;;;;10.48;10.18;;;17.60;99.90;;;;;;5063969;28;20231;-81
2022/07/19 04:50:31;;;;;;;10.40;10.10;;;17.70;99.90;;;;;;5064055;28;20231;-80
2022/07/19 04:53:02;;;;;;;9.95;9.65;;;17.80;99.90;;;;;;5065400;28;20230;-81
2022/07/19 04:55:31;;;;;;;10.02;9.73;;;17.80;99.90;;;;;;5066519;28;20247;-80
2022/07/19 04:58:01;;;;;;;10.10;9.80;;;17.90;99.90;;;;;;5065726;28;20219;-81
2022/07/19 05:00:29;;;;;;;10.07;9.77;;;18.00;99.90;;;;;;5065754;28;20302;-80
2022/07/19 05:02:58;;;;;;;10.25;9.95;;;18.10;99.90;;;;;;5066705;28;20333;-80
2022/07/19 05:05:31;;;;;;;9.85;9.55;;;18.10;99.90;;;;;;5065509;28;20231;-80
2022/07/19 05:07:59;;;;;;;10.00;9.70;;;18.20;99.90;;;;;;5066582;28;20261;-81
2022/07/19 05:10:28;;;;;;;10.45;10.15;;;18.30;99.90;;;;;;5065900;28;20263;-80
2022/07/19 05:12:58;;;;;;;10.40;10.10;;;18.40;99.90;;;;;;5065829;28;20259;-80
2022/07/19 05:15:26;;;;;;;10.45;10.15;;;18.50;99.90;;;;;;5065873;28;20253;-80
2022/07/19 05:17:58;;;;;;;10.27;9.98;;;18.60;99.90;;;;;;5065463;28;20211;-81
2022/07/19 05:20:36;;;;;;;10.35;10.05;;;18.80;99.90;;;;;;5065512;28;20313;-81
2022/07/19 05:23:07;;;;;;;10.27;9.98;;;18.90;99.90;;;;;;5065620;28;20608;-81
2022/07/19 05:25:35;;;;;;;10.60;10.30;;;19.00;99.90;;;;;;5065205;28;20231;-80
2022/07/19 05:28:04;;;;;;;10.60;10.30;;;19.10;99.90;;;;;;5065044;28;20227;-81
2022/07/19 05:30:34;;;;;;;10.70;10.40;;;19.30;99.90;;;;;;5065030;28;20227;-81
2022/07/19 05:33:03;;;;;;;10.60;10.30;;;19.40;99.90;;;;;;5065282;28;20239;-80
2022/07/19 05:35:42;;;;;;;10.48;10.18;;;19.60;99.90;;;;;;5064720;28;20250;-81
2022/07/19 05:38:10;;;;;;;10.65;10.35;;;19.70;99.90;;;;;;5064538;28;20334;-80
2022/07/19 05:40:40;;;;;;;10.70;10.40;;;19.80;99.90;;;;;;5070760;28;20306;-80
2022/07/19 05:43:08;;;;;;;10.63;10.32;;;19.90;99.90;;;;;;5078757;28;20230;-79
2022/07/19 05:45:35;;;;;;;10.70;10.40;;;20.00;99.90;;;;;;5077704;28;20234;-81
2022/07/19 05:48:03;;;;;;;10.40;10.10;;;20.10;99.90;;;;;;5064543;28;20314;-81
2022/07/19 05:50:32;;;;;;;10.40;10.10;;;20.20;99.90;;;;;;5064716;28;20269;-81
2022/07/19 05:53:01;;;;;;;10.27;9.98;;;20.30;99.90;;;;;;5064051;28;20665;-80
2022/07/19 05:55:29;;;;;;;10.35;10.05;;;20.50;99.90;;;;;;5063688;28;20243;-81
2022/07/19 05:57:58;;;;;;;10.45;10.15;;;20.70;99.90;;;;;;5065665;28;20302;-79
2022/07/19 06:00:27;;;;;;;10.20;9.90;;;20.90;99.90;;;;;;5066555;28;20254;-81
2022/07/19 06:02:56;;;;;;;10.45;10.15;;;20.90;99.90;;;;;;5064708;28;20242;-80
2022/07/19 06:05:25;;;;;;;10.50;10.20;;;21.00;99.90;;;;;;5063590;28;20280;-81
2022/07/19 06:08:05;;;;;;;10.50;10.20;;;21.10;99.90;;;;;;5063551;28;20327;-81
2022/07/19 06:10:33;;;;;;;10.65;10.35;;;21.30;99.90;;;;;;5063142;28;20238;-81
2022/07/19 06:13:02;;;;;;;10.70;10.40;;;21.50;99.90;;;;;;5063279;28;20272;-81
2022/07/19 06:15:32;;;;;;;10.63;10.32;;;21.60;99.90;;;;;;5063157;28;20293;-82
2022/07/19 06:18:01;;;;;;;10.90;10.60;;;21.80;99.90;;;;;;5063614;28;20242;-81
2022/07/19 06:20:31;;;;;;;10.80;10.50;;;21.90;99.90;;;;;;5062353;28;20254;-81
2022/07/19 06:23:09;;;;;;;11.10;10.80;;;22.10;99.90;;;;;;5062897;28;20329;-81
2022/07/19 06:25:38;;;;;;;11.00;10.70;;;22.30;99.90;;;;;;5064539;28;20348;-82
2022/07/19 06:28:08;;;;;;;10.80;10.50;;;22.40;99.90;;;;;;5065959;28;20231;-81
2022/07/19 06:30:37;;;;;;;10.70;10.40;;;22.50;99.90;;;;;;5065186;28;20243;-82
2022/07/19 06:33:07;;;;;;;10.80;10.50;;;22.60;99.90;;;;;;5064403;28;20238;-82
2022/07/19 06:35:37;;;;;;;10.68;10.38;;;22.70;99.90;;;;;;5063852;28;20309;-82
2022/07/19 06:38:15;;;;;;;10.70;10.40;;;22.90;99.90;;;;;;5063462;28;20263;-82
2022/07/19 06:40:44;;;;;;;10.90;10.60;;;23.10;99.90;;;;;;5062976;28;21062;-82
2022/07/19 06:43:14;;;;;;;10.70;10.40;;;23.20;99.90;;;;;;5062836;28;20273;-82
2022/07/19 06:45:43;;;;;;;10.63;10.32;;;23.50;99.90;;;;;;5062367;28;20249;-82
2022/07/19 06:48:12;;;;;;;10.80;10.50;;;23.60;99.90;;;;;;5062533;28;20784;-82
2022/07/19 06:50:42;;;;;;;11.20;10.90;;;23.80;99.90;;;;;;5062406;28;20250;-82
2022/07/19 06:53:20;;;;;;;11.48;11.18;;;23.90;99.90;;;;;;5062393;28;20226;-82
2022/07/19 06:55:50;;;;;;;11.07;10.77;;;24.10;99.90;;;;;;5061990;28;20285;-82
2022/07/19 06:58:19;;;;;;;11.23;10.93;;;24.30;99.90;;;;;;5062946;28;20273;-82
2022/07/19 07:00:48;;;;;;;11.07;10.77;;;24.40;99.90;;;;;;5062991;28;20321;-82
2022/07/19 07:03:18;;;;;;;10.88;10.57;;;24.60;99.90;;;;;;5063049;28;20266;-82
2022/07/19 07:05:47;;;;;;;10.90;10.60;;;24.80;99.90;;;;;;5061719;28;20342;-82
2022/07/19 07:08:26;;;;;;;10.82;10.52;;;24.90;99.90;;;;;;5062609;28;20230;-82
2022/07/19 07:10:55;;;;;;;10.80;10.50;;;25.10;99.90;;;;;;5062802;28;20262;-82
2022/07/19 07:13:24;;;;;;;10.95;10.65;;;25.20;99.90;;;;;;5063107;28;20299;-82
2022/07/19 07:15:57;;;;;;;10.95;10.65;;;25.40;99.90;;;;;;5061624;28;20235;-82
2022/07/19 07:18:25;;;;;;;10.88;10.57;;;25.50;99.90;;;;;;5068804;28;20227;-82
2022/07/19 07:23:43;;;;;;;10.50;10.20;;;25.70;99.90;;;;;;5182418;22;20260;-87
2022/07/19 07:26:11;;;;;;;10.38;10.07;;;25.90;99.90;;;;;;5099254;28;20226;-88
2022/07/19 07:28:40;;;;;;;10.40;10.10;;;26.00;99.90;;;;;;5099887;28;20225;-89
2022/07/19 07:31:10;;;;;;;10.80;10.50;;;26.20;99.90;;;;;;5099467;28;20214;-89
2022/07/19 07:33:39;;;;;;;10.77;10.48;;;26.40;99.90;;;;;;5099967;28;20236;-89
2022/07/19 07:36:09;;;;;;;10.85;10.55;;;26.40;99.90;;;;;;5099500;28;20241;-88
2022/07/19 07:38:48;;;;;;;10.70;10.40;;;26.60;99.90;;;;;;5099809;28;20209;-88
2022/07/19 07:41:17;;;;;;;10.07;9.77;;;26.80;99.90;;;;;;5099119;28;20236;-87
2022/07/19 07:43:46;;;;;;;9.88;9.57;;;27.00;99.90;;;;;;5099085;28;20224;-88
2022/07/19 07:46:15;;;;;;;10.05;9.75;;;27.10;99.90;;;;;;5098249;28;20218;-90
2022/07/19 07:48:45;;;;;;;10.00;9.70;;;27.20;99.90;;;;;;5099875;28;20214;-90
2022/07/19 07:51:15;;;;;;;10.00;9.70;;;27.40;99.90;;;;;;5099699;28;20210;-90
2022/07/19 07:53:46;;;;;;;9.98;9.68;;;27.50;99.90;;;;;;5099777;28;20238;-90
2022/07/19 07:56:14;;;;;;;9.82;9.52;;;27.50;99.90;;;;;;5099257;28;20218;-89
2022/07/19 07:58:42;;;;;;;10.73;10.43;;;27.70;99.90;;;;;;5099446;28;20257;-90
2022/07/19 08:01:12;;;;;;;10.23;9.93;;;27.70;99.90;;;;;;5099020;28;20214;-88
2022/07/19 08:03:41;;;;;;;10.25;9.95;;;27.80;99.90;;;;;;5099418;28;20234;-88
2022/07/19 08:06:11;;;;;;;10.18;9.88;;;28.00;99.90;;;;;;5098957;28;20226;-88
2022/07/19 08:08:40;;;;;;;10.10;9.80;;;28.20;99.90;;;;;;5092923;28;20218;-88
2022/07/19 08:11:18;;;;;;;10.52;10.23;;;28.30;99.90;;;;;;5082351;28;20257;-88
2022/07/19 08:13:48;;;;;;;10.48;10.18;;;28.50;99.90;;;;;;5083388;28;20242;-88
2022/07/19 08:16:17;;;;;;;10.40;10.10;;;28.60;99.90;;;;;;5082411;28;20234;-87
2022/07/19 08:18:47;;;;;;;10.30;10.00;;;28.60;99.90;;;;;;5086008;28;20225;-89
2022/07/19 08:21:16;;;;;;;10.10;9.80;;;28.70;99.90;;;;;;5084504;28;20222;-88
2022/07/19 08:23:45;;;;;;;10.30;10.00;;;28.80;99.90;;;;;;5082340;28;20234;-88
2022/07/19 08:29:02;;;;;;;10.00;9.70;;;29.10;99.90;;;;;;5084629;28;20305;-88
2022/07/19 08:31:31;;;;;;;10.25;9.95;;;29.20;99.90;;;;;;5084974;28;20244;-88
2022/07/19 08:34:01;;;;;;;10.18;9.88;;;29.40;99.90;;;;;;5086626;28;20229;-88
2022/07/19 08:36:31;;;;;;;10.20;9.90;;;29.50;99.90;;;;;;5085221;28;20258;-88
2022/07/19 08:39:00;;;;;;;10.70;10.40;;;29.70;99.90;;;;;;5094446;28;20206;-88
2022/07/19 08:44:16;;;;;;;10.55;10.25;;;30.10;99.90;;;;;;5101974;28;20210;-89
2022/07/19 08:46:46;;;;;;;10.90;10.60;;;30.20;99.90;;;;;;5102368;28;20234;-90
2022/07/19 08:49:15;;;;;;;10.90;10.60;;;30.40;99.90;;;;;;5102461;28;20237;-89
2022/07/19 08:51:45;;;;;;;10.80;10.50;;;30.60;99.90;;;;;;5088964;28;20234;-88
2022/07/19 08:54:14;;;;;;;10.85;10.55;;;30.70;99.90;;;;;;5101405;28;20210;-88
2022/07/19 08:59:49;;;;;;;10.50;10.20;;;31.10;99.90;;;;;;5095601;28;20222;-89
2022/07/19 09:02:17;;;;;;;10.80;10.50;;;31.20;99.90;;;;;;5086021;28;20260;-88
2022/07/19 09:05:08;;;;;;;11.00;10.70;;;31.40;99.90;;;;;;5085908;28;20230;-88
2022/07/19 09:07:36;;;;;;;10.68;10.38;;;31.50;99.90;;;;;;5083364;28;20326;-87
2022/07/19 09:10:21;;;;;;;10.80;10.50;;;31.60;99.90;;;;;;5083194;28;20281;-87
2022/07/19 09:13:08;;;;;;;10.60;10.30;;;31.60;99.90;;;;;;5085532;28;20238;-88
2022/07/19 09:15:49;;;;;;;10.98;10.68;;;31.80;99.90;;;;;;5089246;28;20234;-88
2022/07/19 09:21:07;;;;;;;10.32;10.02;;;32.20;99.90;;;;;;5082604;28;20222;-88
2022/07/19 09:23:35;;;;;;;10.80;10.50;;;32.50;99.90;;;;;;5082930;28;20244;-88
2022/07/19 09:26:06;;;;;;;10.82;10.52;;;32.80;99.90;;;;;;5083159;28;20238;-88
2022/07/19 09:28:42;;;;;;;11.00;10.70;;;33.00;99.90;;;;;;5084270;28;20226;-88
2022/07/19 09:31:11;;;;;;;10.88;10.57;;;33.10;99.90;;;;;;5083661;28;20317;-87
2022/07/19 09:33:46;;;;;;;10.80;10.50;;;33.20;99.90;;;;;;5086138;28;20276;-88
2022/07/19 09:36:19;;;;;;;11.00;10.70;;;33.30;97.80;;;;;;5083810;28;20226;-87
2022/07/19 09:41:35;;;;;;;11.23;10.93;;;32.90;97.40;;;;;;5099016;28;20206;-88
2022/07/19 09:44:13;;;;;;;10.80;10.50;;;33.00;96.90;;;;;;5100556;28;20214;-89
2022/07/19 09:46:44;;;;;;;11.18;10.88;;;33.00;97.30;;;;;;5095716;28;20261;-89
2022/07/19 09:49:14;;;;;;;10.93;10.63;;;33.00;97.60;;;;;;5087233;28;20241;-87
2022/07/19 09:51:44;;;;;;;10.85;10.55;;;33.30;98.50;;;;;;5088359;28;20214;-86
2022/07/19 09:54:20;;;;;;;10.90;10.60;;;33.60;95.90;;;;;;5085887;28;20241;-88
2022/07/19 09:56:51;;;;;;;11.00;10.70;;;33.60;96.30;;;;;;5085653;28;20241;-88
2022/07/19 09:59:27;;;;;;;11.05;10.75;;;33.40;96.00;;;;;;5085281;28;20230;-87
2022/07/19 10:01:57;;;;;;;10.57;10.27;;;33.50;96.60;;;;;;5083036;28;20218;-87
2022/07/19 10:04:27;;;;;;;10.70;10.40;;;33.90;96.10;;;;;;5085698;28;20237;-88
2022/07/19 10:06:57;;;;;;;10.60;10.30;;;34.10;94.70;;;;;;5096010;28;20224;-88
2022/07/19 10:09:25;;;;;;;10.18;9.88;;;34.00;94.50;;;;;;5099998;28;20278;-88
2022/07/19 10:11:55;;;;;;;9.90;9.60;;;33.90;95.10;;;;;;5100445;28;20226;-89
2022/07/19 10:14:27;;;;;;;10.07;9.77;;;33.90;95.90;;;;;;5070124;28;21030;-88
2022/07/19 10:19:58;;;;;;;10.38;10.07;;;34.70;94.20;;;;;;5081902;28;20221;-88
2022/07/19 10:22:28;;;;;;;11.00;10.70;;;35.30;94.30;;;;;;5081045;28;20241;-88
2022/07/19 10:24:58;;;;;;;10.90;10.60;;;35.50;93.90;;;;;;5086167;28;20244;-89
2022/07/19 10:27:45;;;;;;;11.13;10.82;;;35.80;92.70;;;;;;5095734;28;20228;-88
2022/07/19 10:30:31;;;;;;;10.98;10.68;;;36.10;93.00;;;;;;5082274;28;20240;-88
2022/07/19 10:33:01;;;;;;;10.70;10.40;;;36.30;90.80;;;;;;5080522;28;20230;-87
2022/07/19 10:35:31;;;;;;;11.07;10.77;;;35.80;90.80;;;;;;5081601;28;20244;-87
2022/07/19 10:38:10;;;;;;;10.93;10.63;;;35.40;90.40;;;;;;5087606;28;20261;-87
2022/07/19 10:43:27;;;;;;;10.80;10.50;;;35.20;91.70;;;;;;5083737;28;20222;-88
2022/07/19 10:46:24;;;;;;;11.18;10.88;;;35.50;91.00;;;;;;5081084;28;20299;-87
2022/07/19 10:48:53;;;;;;;11.13;10.82;;;36.20;90.70;;;;;;5079898;28;20249;-87
2022/07/19 10:51:30;;;;;;;10.90;10.60;;;36.50;90.50;;;;;;5080136;28;20250;-88
2022/07/19 10:54:08;;;;;;;10.93;10.63;;;36.60;88.20;;;;;;5080259;28;20229;-87
2022/07/19 10:57:03;;;;;;;10.98;10.68;;;36.50;89.40;;;;;;5081153;28;20234;-88
2022/07/19 10:59:43;;;;;;;11.35;11.05;;;36.50;88.80;;;;;;5079997;28;20238;-88
2022/07/19 11:02:28;;;;;;;11.40;11.10;;;36.20;90.10;;;;;;5080717;28;20265;-87
2022/07/19 11:04:57;;;;;;;11.13;10.82;;;36.50;85.90;;;;;;5079612;28;20218;-87
2022/07/19 11:07:27;;;;;;;11.70;11.30;;;36.60;84.90;;;;;;5079967;28;20769;-87
2022/07/19 11:09:57;;;;;;;11.23;10.93;;;36.40;84.50;;;;;;5082611;28;20234;-87
2022/07/19 11:12:36;;;;;;;11.40;11.10;;;36.10;85.80;;;;;;5098036;28;20229;-88
2022/07/19 11:15:14;;;;;;;11.05;10.75;;;36.20;87.40;;;;;;5099436;28;20248;-87
2022/07/19 11:17:56;;;;;;;11.45;11.13;;;36.50;87.20;;;;;;5088888;28;20250;-88
2022/07/19 11:20:31;;;;;;;11.10;10.80;;;37.00;85.20;;;;;;5083153;28;20226;-88
2022/07/19 11:23:00;;;;;;;11.32;11.02;;;37.40;83.20;;;;;;5081936;28;20261;-89
2022/07/19 11:25:31;;;;;;;11.13;10.82;;;37.40;82.90;;;;;;5080799;28;20253;-89
2022/07/19 11:28:00;;;;;;;11.23;10.93;;;37.40;82.10;;;;;;5080978;28;20297;-87
2022/07/19 11:30:31;;;;;;;11.38;11.07;;;37.00;84.30;;;;;;5079594;28;20226;-88
2022/07/19 11:33:07;;;;;;;10.98;10.68;;;37.00;84.20;;;;;;5079162;28;20238;-87
2022/07/19 11:35:36;;;;;;;11.48;11.18;;;37.10;83.20;;;;;;5080972;28;20369;-88
2022/07/19 11:38:06;;;;;;;11.23;10.93;;;37.40;82.30;;;;;;5080722;28;20261;-89
2022/07/19 11:40:37;;;;;;;11.48;11.13;;;37.40;84.10;;;;;;5095805;28;20230;-88
2022/07/19 11:43:13;;;;;;;11.30;11.00;;;37.40;83.20;;;;;;5095987;28;20234;-88
2022/07/19 11:45:51;;;;;;;11.00;10.70;;;37.50;82.30;;;;;;5099378;28;20230;-88
2022/07/19 11:48:41;;;;;;;10.82;10.52;;;37.70;81.40;;;;;;5092404;28;20230;-88
2022/07/19 11:51:11;;;;;;;10.98;10.68;;;37.90;83.10;;;;;;5083664;28;20226;-88
2022/07/19 11:56:25;;;;;;;11.13;10.82;;;38.00;81.90;;;;;;5080421;28;20226;-89
2022/07/19 11:58:54;;;;;;;10.98;10.68;;;38.00;79.00;;;;;;5079172;28;20234;-89
2022/07/19 12:04:31;;;;;;;11.25;10.95;;;37.70;79.70;;;;;;5082445;28;20722;-89
2022/07/19 12:07:09;;;;;;;11.35;11.05;;;37.90;79.60;;;;;;5082538;28;20230;-89
2022/07/19 12:09:38;;;;;;;11.40;11.10;;;38.20;80.90;;;;;;5088461;28;20256;-87
2022/07/19 12:12:16;;;;;;;11.48;11.18;;;38.20;79.10;;;;;;5086514;28;20240;-87
2022/07/19 12:14:44;;;;;;;11.77;11.38;;;38.10;78.40;;;;;;5084304;28;20285;-88
2022/07/19 12:17:15;;;;;;;11.77;11.38;;;38.00;79.60;;;;;;5082957;28;20244;-88
2022/07/19 12:19:53;;;;;;;12.00;11.60;;;38.40;78.80;;;;;;5082123;28;20237;-88
2022/07/19 12:22:31;;;;;;;11.27;10.98;;;38.70;76.80;;;;;;5081346;28;20233;-88
2022/07/19 12:24:59;;;;;;;11.75;11.35;;;38.90;76.70;;;;;;5081736;28;20287;-88
2022/07/19 12:27:28;;;;;;;11.75;11.35;;;38.80;77.60;;;;;;5081722;28;20282;-88
2022/07/19 12:29:58;;;;;;;11.52;11.23;;;38.60;77.00;;;;;;5082237;28;20230;-87
2022/07/19 12:38:11;;;;;;;11.60;11.30;;;37.70;77.40;;;;;;5082160;28;20241;-88
2022/07/19 12:40:41;;;;;;;11.70;11.35;;;37.90;77.10;;;;;;5082125;28;20229;-88
2022/07/19 12:43:12;;;;;;;11.73;11.32;;;38.20;78.70;;;;;;5082918;28;20280;-88
2022/07/19 12:45:47;;;;;;;11.45;11.15;;;38.60;75.70;;;;;;5083670;28;20242;-87
2022/07/19 12:48:17;;;;;;;11.52;11.23;;;38.40;77.20;;;;;;5083089;28;20248;-88
2022/07/19 12:50:54;;;;;;;11.38;11.07;;;38.20;74.10;;;;;;5097326;28;20210;-88
2022/07/19 12:53:24;;;;;;;11.52;11.23;;;38.10;76.30;;;;;;5099025;28;20288;-87
2022/07/19 12:55:54;;;;;;;11.68;11.32;;;38.10;76.40;;;;;;5084017;28;20222;-88
2022/07/19 13:01:05;;;;;;;11.80;11.40;;;38.50;76.60;;;;;;5098252;28;20229;-87
2022/07/19 13:03:33;;;;;;;11.80;11.40;;;38.80;74.70;;;;;;5087995;28;20290;-87
2022/07/19 13:06:02;;;;;;;11.43;11.13;;;38.90;74.00;;;;;;5084507;28;20324;-87
2022/07/19 13:08:30;;;;;;;11.45;11.15;;;38.90;74.50;;;;;;5081180;28;20215;-87
2022/07/19 13:10:59;;;;;;;11.45;11.15;;;38.60;73.10;;;;;;5081882;28;20265;-87
2022/07/19 13:13:29;;;;;;;11.73;11.32;;;38.60;76.30;;;;;;5098888;28;20306;-88
2022/07/19 13:16:01;;;;;;;11.82;11.43;;;39.20;76.50;;;;;;5085629;28;20233;-88
2022/07/19 13:18:29;;;;;;;11.52;11.20;;;39.80;73.80;;;;;;5082251;28;20214;-87
2022/07/19 13:20:59;;;;;;;11.90;11.50;;;40.10;71.50;;;;;;5088333;28;20226;-88
2022/07/19 13:23:28;;;;;;;11.80;11.40;;;39.80;71.80;;;;;;5097320;22;20241;-82
2022/07/19 13:25:55;;;;;;;11.73;11.32;;;39.60;72.90;;;;;;5082014;28;20233;-82
2022/07/19 13:28:22;;;;;;;12.00;11.60;;;39.60;73.60;;;;;;5082202;28;20229;-83
2022/07/19 13:30:50;;;;;;;11.80;11.40;;;39.60;73.70;;;;;;5084081;28;20226;-83
2022/07/19 13:33:17;;;;;;;12.02;11.63;;;39.80;72.00;;;;;;5082600;28;20261;-83
2022/07/19 13:35:45;;;;;;;11.88;11.48;;;40.00;73.30;;;;;;5082140;28;20233;-83
2022/07/19 13:38:13;;;;;;;11.82;11.43;;;40.00;74.30;;;;;;5082651;28;20217;-84